Time;durP1;ratioP1;P1;durP2;ratioP2;P2;SDS_P1;SDS_P2;PMS_P1;PMS_P2;Temp;Humidity;BMP_temperature;BMP_pressure;BME280_temperature;BME280_humidity;BME280_pressure;Samples;Min_cycle;Max_cycle;Signal;HPM_P1;HPM_P2
2022/09/20 00:00:40;;;;;;;5.32;1.52;;;17.50;93.10;;;;;;5015576;28;20040;-78
2022/09/20 00:03:06;;;;;;;5.50;2.22;;;17.50;93.10;;;;;;5016040;28;20033;-78
2022/09/20 00:05:34;;;;;;;8.48;2.38;;;17.50;93.10;;;;;;5015749;28;20037;-79
2022/09/20 00:08:00;;;;;;;4.57;2.28;;;17.50;93.40;;;;;;5015747;28;20048;-80
2022/09/20 00:10:26;;;;;;;3.13;2.00;;;17.40;93.20;;;;;;5015654;28;20472;-78
2022/09/20 00:12:52;;;;;;;4.32;1.98;;;17.50;93.30;;;;;;5015648;28;20060;-80
2022/09/20 00:15:17;;;;;;;5.90;2.35;;;17.40;93.20;;;;;;5015324;28;20387;-81
2022/09/20 00:17:43;;;;;;;4.65;2.05;;;17.40;93.20;;;;;;5015020;28;20030;-80
2022/09/20 00:20:09;;;;;;;5.00;1.98;;;17.40;93.20;;;;;;5015505;28;20084;-79
2022/09/20 00:22:34;;;;;;;5.20;2.30;;;17.40;93.20;;;;;;5015665;28;20022;-79
2022/09/20 00:25:00;;;;;;;3.70;1.90;;;17.40;93.20;;;;;;5015348;28;20120;-78
2022/09/20 00:27:26;;;;;;;3.10;2.13;;;17.40;93.10;;;;;;5015565;28;20490;-79
2022/09/20 00:29:52;;;;;;;6.43;2.90;;;17.40;93.10;;;;;;5014983;28;20022;-78
2022/09/20 00:32:18;;;;;;;4.78;2.47;;;17.30;93.10;;;;;;5015397;28;20037;-79
2022/09/20 00:37:28;;;;;;;5.25;2.42;;;17.30;93.10;;;;;;5015902;28;20049;-80
2022/09/20 00:39:53;;;;;;;6.72;2.47;;;17.30;93.10;;;;;;5015122;28;20022;-79
2022/09/20 00:42:25;;;;;;;5.45;2.83;;;17.30;93.10;;;;;;5014863;28;20030;-79
2022/09/20 00:44:56;;;;;;;9.10;2.28;;;17.30;93.20;;;;;;5015360;28;20026;-80
2022/09/20 00:47:31;;;;;;;4.20;2.42;;;17.30;93.10;;;;;;5015164;28;20061;-78
2022/09/20 00:50:24;;;;;;;6.90;2.33;;;17.30;93.20;;;;;;5014867;28;20018;-80
2022/09/20 00:52:58;;;;;;;6.55;2.70;;;17.30;93.20;;;;;;5014445;28;20090;-78
2022/09/20 00:55:26;;;;;;;4.05;2.63;;;17.30;93.10;;;;;;5014835;28;20101;-78
2022/09/20 00:57:52;;;;;;;4.70;2.63;;;17.30;93.20;;;;;;5014627;28;20026;-80
2022/09/20 01:00:18;;;;;;;4.53;2.40;;;17.30;93.20;;;;;;5014860;28;20394;-80
2022/09/20 01:02:47;;;;;;;6.90;2.78;;;17.20;93.30;;;;;;5014851;28;20459;-78
2022/09/20 01:05:14;;;;;;;6.22;2.88;;;17.20;93.30;;;;;;5014635;28;20174;-79
2022/09/20 01:07:43;;;;;;;6.70;2.97;;;17.20;93.40;;;;;;5014776;28;20450;-79
2022/09/20 01:10:08;;;;;;;5.45;3.28;;;17.20;93.50;;;;;;5014452;28;20202;-81
2022/09/20 01:12:35;;;;;;;9.77;3.20;;;17.20;93.50;;;;;;5014325;28;20497;-81
2022/09/20 01:15:05;;;;;;;6.47;3.15;;;17.20;93.60;;;;;;5014469;28;20029;-80
2022/09/20 01:17:33;;;;;;;6.30;3.08;;;17.20;93.50;;;;;;5013405;28;20467;-81
2022/09/20 01:20:21;;;;;;;7.65;3.40;;;17.20;93.60;;;;;;5014826;28;20101;-78
2022/09/20 01:23:05;;;;;;;7.70;3.17;;;17.20;93.70;;;;;;5014455;28;20026;-79
2022/09/20 01:25:55;;;;;;;8.75;4.05;;;17.20;93.60;;;;;;5014090;28;20022;-80
2022/09/20 01:28:22;;;;;;;7.25;3.58;;;17.20;93.60;;;;;;5013349;28;20033;-80
2022/09/20 01:31:05;;;;;;;7.85;3.67;;;17.20;93.60;;;;;;5014132;28;20022;-78
2022/09/20 01:33:36;;;;;;;6.65;3.50;;;17.20;93.60;;;;;;5014236;28;20029;-79
2022/09/20 01:36:04;;;;;;;7.10;3.63;;;17.20;93.60;;;;;;5014082;28;20038;-80
2022/09/20 01:39:15;;;;;;;10.43;4.13;;;17.10;93.60;;;;;;5014202;28;20058;-78
2022/09/20 01:41:57;;;;;;;7.60;3.72;;;17.00;93.90;;;;;;5013505;28;20053;-79
2022/09/20 01:44:32;;;;;;;7.15;3.67;;;17.00;93.80;;;;;;5013979;28;20439;-77
2022/09/20 01:47:24;;;;;;;8.00;3.78;;;17.10;93.90;;;;;;5013860;28;20487;-79
2022/09/20 01:50:24;;;;;;;5.65;3.55;;;17.10;94.00;;;;;;5013956;28;20514;-77
2022/09/20 01:53:20;;;;;;;9.02;3.83;;;17.00;94.10;;;;;;5012412;28;20057;-78
2022/09/20 01:56:10;;;;;;;9.57;4.30;;;17.10;94.20;;;;;;5013614;28;20037;-78
2022/09/20 01:58:38;;;;;;;7.00;4.03;;;17.10;94.30;;;;;;5013872;28;20414;-80
2022/09/20 02:01:25;;;;;;;7.97;4.03;;;17.10;94.20;;;;;;5013786;28;20076;-79
2022/09/20 02:04:20;;;;;;;6.47;4.13;;;17.10;94.40;;;;;;5013999;28;20119;-81
2022/09/20 02:06:53;;;;;;;8.13;4.55;;;17.10;94.30;;;;;;5013776;28;20034;-80
2022/09/20 02:09:40;;;;;;;6.00;3.67;;;17.10;94.30;;;;;;5013573;28;20030;-81
2022/09/20 02:12:25;;;;;;;6.75;4.25;;;17.00;94.30;;;;;;5014035;28;20060;-79
2022/09/20 02:15:09;;;;;;;8.45;4.70;;;17.00;94.40;;;;;;5012303;28;20387;-77
2022/09/20 02:17:52;;;;;;;6.03;4.13;;;17.10;94.40;;;;;;5013367;28;20073;-79
2022/09/20 02:20:30;;;;;;;8.13;3.92;;;17.10;94.40;;;;;;5012421;28;20132;-79
2022/09/20 02:23:17;;;;;;;8.68;4.68;;;17.00;94.40;;;;;;5013440;28;20021;-78
2022/09/20 02:26:27;;;;;;;12.15;4.63;;;17.10;94.40;;;;;;5013355;28;20022;-78
2022/09/20 02:29:08;;;;;;;9.45;4.30;;;17.10;94.50;;;;;;5014446;28;20041;-80
2022/09/20 02:31:55;;;;;;;9.73;3.83;;;17.10;94.40;;;;;;5015533;28;20053;-78
2022/09/20 02:34:35;;;;;;;10.43;4.65;;;17.00;94.60;;;;;;5016179;28;20489;-80
2022/09/20 02:37:29;;;;;;;8.52;4.03;;;17.00;94.60;;;;;;5014288;28;20034;-77
2022/09/20 02:40:12;;;;;;;10.23;5.18;;;17.00;94.60;;;;;;5015760;28;20083;-80
2022/09/20 02:42:47;;;;;;;7.82;4.40;;;17.00;94.60;;;;;;5015731;28;20106;-79
2022/09/20 02:45:38;;;;;;;12.68;4.93;;;17.00;94.60;;;;;;5014565;28;20030;-79
2022/09/20 02:48:04;;;;;;;7.78;4.40;;;17.00;94.70;;;;;;5015612;28;20042;-80
2022/09/20 02:51:00;;;;;;;6.72;4.32;;;17.00;94.60;;;;;;5014215;28;20028;-80
2022/09/20 02:53:46;;;;;;;9.43;4.32;;;17.00;94.50;;;;;;5014820;28;20030;-79
2022/09/20 02:56:50;;;;;;;6.55;4.45;;;17.00;94.40;;;;;;5014865;28;20075;-77
2022/09/20 02:59:37;;;;;;;7.72;4.70;;;17.00;94.60;;;;;;5015261;28;20029;-77
2022/09/20 03:02:12;;;;;;;11.77;4.78;;;17.00;94.50;;;;;;5015162;28;20084;-80
2022/09/20 03:04:55;;;;;;;8.85;4.63;;;17.00;94.40;;;;;;5011680;28;20084;-78
2022/09/20 03:07:38;;;;;;;9.32;4.55;;;16.90;94.50;;;;;;5012727;28;20034;-81
2022/09/20 03:10:38;;;;;;;5.95;4.07;;;16.90;94.50;;;;;;5013042;28;20030;-82
2022/09/20 03:13:12;;;;;;;8.68;4.68;;;16.90;94.50;;;;;;5013017;28;20034;-78
2022/09/20 03:15:56;;;;;;;7.10;4.30;;;17.00;94.30;;;;;;5012867;28;20021;-80
2022/09/20 03:18:42;;;;;;;8.25;4.05;;;16.90;94.20;;;;;;5012770;28;20030;-81
2022/09/20 03:21:08;;;;;;;8.18;3.80;;;17.00;94.30;;;;;;5013030;28;20026;-81
2022/09/20 03:24:02;;;;;;;10.88;4.68;;;17.00;94.30;;;;;;5017842;28;20053;-80
2022/09/20 03:26:36;;;;;;;6.70;4.50;;;16.90;94.30;;;;;;5013974;28;20084;-78
2022/09/20 03:29:06;;;;;;;7.60;4.43;;;16.90;94.10;;;;;;5010547;28;20029;-80
2022/09/20 03:31:43;;;;;;;8.57;4.65;;;16.90;94.10;;;;;;5011963;28;20037;-81
2022/09/20 03:34:15;;;;;;;9.55;4.72;;;16.80;94.10;;;;;;5012760;28;20129;-79
2022/09/20 03:36:55;;;;;;;7.88;4.90;;;16.80;94.00;;;;;;5012635;28;20071;-81
2022/09/20 03:39:48;;;;;;;5.82;4.53;;;16.90;94.00;;;;;;5012518;28;20091;-82
2022/09/20 03:42:24;;;;;;;7.90;4.60;;;16.80;94.00;;;;;;5012701;28;20097;-81
2022/09/20 03:45:28;;;;;;;7.97;5.03;;;16.80;93.90;;;;;;5011248;28;20036;-81
2022/09/20 03:48:44;;;;;;;7.03;4.57;;;16.80;94.00;;;;;;5012601;28;20041;-81
2022/09/20 03:51:54;;;;;;;5.43;4.50;;;16.80;93.90;;;;;;5012357;28;20125;-81
2022/09/20 03:54:41;;;;;;;9.23;5.05;;;16.80;93.80;;;;;;5015758;28;20517;-81
2022/09/20 03:57:26;;;;;;;8.73;4.43;;;16.80;93.80;;;;;;5016180;28;20030;-82
2022/09/20 03:59:58;;;;;;;12.02;4.97;;;16.80;93.60;;;;;;5016089;28;20026;-81
2022/09/20 04:02:39;;;;;;;8.80;5.30;;;16.70;93.80;;;;;;5016255;28;20108;-81
2022/09/20 04:05:11;;;;;;;8.27;5.03;;;16.70;93.60;;;;;;5016113;28;20114;-81
2022/09/20 04:07:51;;;;;;;7.10;5.10;;;16.60;93.60;;;;;;5015953;28;20088;-81
2022/09/20 04:10:38;;;;;;;8.38;4.82;;;16.60;93.70;;;;;;5015737;28;20033;-81
2022/09/20 04:13:27;;;;;;;8.43;5.63;;;16.60;93.60;;;;;;5015822;28;20034;-80
2022/09/20 04:16:22;;;;;;;6.30;4.85;;;16.70;93.50;;;;;;5015485;28;20108;-79
2022/09/20 04:18:57;;;;;;;10.20;5.03;;;16.70;93.40;;;;;;5015636;28;20059;-78
2022/09/20 04:21:40;;;;;;;7.43;5.00;;;16.60;93.30;;;;;;5015490;28;20029;-81
2022/09/20 04:24:20;;;;;;;8.02;4.68;;;16.60;93.40;;;;;;5015497;28;20467;-80
2022/09/20 04:26:51;;;;;;;7.90;5.30;;;16.60;93.30;;;;;;5015471;28;20410;-80
2022/09/20 04:29:41;;;;;;;9.45;4.93;;;16.60;93.30;;;;;;5015211;28;20080;-81
2022/09/20 04:32:36;;;;;;;8.27;4.65;;;16.50;93.10;;;;;;5015428;28;20121;-76
2022/09/20 04:38:16;;;;;;;11.73;4.93;;;16.50;93.20;;;;;;5015530;28;20092;-77
2022/09/20 04:40:58;;;;;;;6.45;4.30;;;16.50;93.10;;;;;;5014576;28;20026;-78
2022/09/20 04:43:36;;;;;;;;;;;16.50;93.00;;;;;;5015649;28;20095;-77
2022/09/20 04:46:34;;;;;;;10.45;5.10;;;16.60;93.00;;;;;;5014390;28;19917;-78
2022/09/20 04:49:27;;;;;;;11.52;4.97;;;16.50;93.00;;;;;;5014947;28;20060;-77
2022/09/20 04:52:04;;;;;;;7.43;4.83;;;16.40;93.00;;;;;;5016530;28;20092;-77
2022/09/20 04:54:48;;;;;;;9.15;5.45;;;16.40;93.10;;;;;;5017333;28;20292;-77
2022/09/20 04:57:23;;;;;;;8.77;5.03;;;16.30;93.20;;;;;;5014677;28;20399;-79
2022/09/20 05:00:11;;;;;;;8.32;4.82;;;16.40;93.10;;;;;;5011883;28;20491;-77
2022/09/20 05:02:41;;;;;;;9.27;4.60;;;16.40;93.10;;;;;;5012994;28;20482;-78
2022/09/20 05:05:25;;;;;;;10.68;5.18;;;16.30;93.10;;;;;;5015514;28;20037;-76
2022/09/20 05:08:15;;;;;;;7.30;4.60;;;16.20;93.40;;;;;;5016032;28;20030;-80
2022/09/20 05:10:53;;;;;;;13.18;4.95;;;16.20;93.30;;;;;;5023067;28;20029;-75
2022/09/20 05:13:29;;;;;;;7.03;4.78;;;16.20;93.40;;;;;;5023619;28;20514;-77
2022/09/20 05:16:17;;;;;;;10.20;4.72;;;16.20;93.40;;;;;;5018994;28;20022;-79
2022/09/20 05:19:11;;;;;;;7.10;4.60;;;16.20;93.40;;;;;;5008359;28;20061;-78
2022/09/20 05:21:40;;;;;;;7.75;4.78;;;16.10;93.40;;;;;;5020394;28;20026;-80
2022/09/20 05:24:14;;;;;;;8.23;4.68;;;16.20;93.30;;;;;;5010281;28;20057;-79
2022/09/20 05:27:05;;;;;;;8.63;4.68;;;16.20;93.20;;;;;;5025729;28;20292;-78
2022/09/20 05:29:41;;;;;;;8.65;4.60;;;16.20;93.30;;;;;;5014521;28;20057;-76
2022/09/20 05:32:29;;;;;;;8.88;4.03;;;16.20;93.20;;;;;;5013419;28;20037;-76
2022/09/20 05:35:11;;;;;;;10.75;4.43;;;16.20;93.40;;;;;;5019721;28;21724;-76
2022/09/20 05:38:00;;;;;;;7.25;3.67;;;16.20;93.20;;;;;;5019031;28;20026;-79
2022/09/20 05:40:59;;;;;;;6.07;3.92;;;16.30;93.20;;;;;;5016359;28;20029;-76
2022/09/20 05:43:46;;;;;;;6.38;4.10;;;16.30;93.00;;;;;;5033780;28;20025;-78
2022/09/20 05:46:43;;;;;;;7.20;4.25;;;16.30;93.00;;;;;;5021533;28;20026;-78
2022/09/20 05:49:19;;;;;;;8.23;3.60;;;16.30;93.20;;;;;;5019473;28;20502;-74
2022/09/20 05:52:13;;;;;;;9.65;3.28;;;16.00;93.50;;;;;;5034867;28;20040;-80
2022/09/20 05:54:56;;;;;;;6.20;3.55;;;15.70;94.10;;;;;;5025780;28;20024;-80
2022/09/20 05:57:47;;;;;;;9.52;3.42;;;15.60;94.30;;;;;;5022965;28;20022;-79
2022/09/20 06:00:19;;;;;;;6.28;3.92;;;15.80;94.40;;;;;;5018863;28;20474;-78
2022/09/20 06:03:03;;;;;;;8.07;3.38;;;15.90;93.80;;;;;;5013867;28;20021;-78
2022/09/20 06:05:41;;;;;;;6.78;3.67;;;15.70;94.00;;;;;;5023062;28;20041;-76
2022/09/20 06:08:16;;;;;;;8.23;3.60;;;15.70;94.10;;;;;;5032933;28;20418;-79
2022/09/20 06:11:01;;;;;;;10.30;4.70;;;15.90;94.10;;;;;;5014995;28;20024;-79
2022/09/20 06:13:38;;;;;;;8.40;4.45;;;16.00;93.70;;;;;;5021054;28;20037;-78
2022/09/20 06:16:06;;;;;;;8.43;5.40;;;16.00;93.80;;;;;;5024449;28;20532;-79
2022/09/20 06:18:37;;;;;;;8.65;4.63;;;16.00;93.90;;;;;;5032822;28;20029;-78
2022/09/20 06:21:28;;;;;;;8.20;4.53;;;15.90;94.10;;;;;;5031574;28;20444;-79
2022/09/20 06:23:59;;;;;;;7.60;4.72;;;15.80;94.30;;;;;;5033386;28;20064;-79
2022/09/20 06:26:34;;;;;;;9.82;5.65;;;15.90;94.20;;;;;;5032081;28;20037;-80
2022/09/20 06:29:04;;;;;;;9.25;5.47;;;15.90;94.20;;;;;;5033067;28;20497;-80
2022/09/20 06:31:30;;;;;;;12.05;5.35;;;15.90;94.10;;;;;;5032446;28;20167;-79
2022/09/20 06:34:02;;;;;;;10.75;5.70;;;16.00;94.20;;;;;;5033032;28;20053;-79
2022/09/20 06:42:27;;;;;;;10.65;6.80;;;16.10;94.50;;;;;;5013421;28;20403;-79
2022/09/20 06:44:53;;;;;;;9.85;6.22;;;16.20;94.50;;;;;;5012468;28;20085;-75
2022/09/20 06:47:18;;;;;;;8.82;6.22;;;16.20;94.40;;;;;;5013043;28;20447;-80
2022/09/20 06:49:45;;;;;;;6.95;5.82;;;16.10;94.40;;;;;;5025314;28;20091;-80
2022/09/20 06:52:19;;;;;;;10.73;6.38;;;16.10;94.60;;;;;;5033024;28;20382;-80
2022/09/20 06:54:46;;;;;;;13.77;5.57;;;16.10;94.80;;;;;;5020468;28;20038;-81
2022/09/20 06:57:17;;;;;;;8.88;3.80;;;16.20;94.70;;;;;;5018792;28;20057;-80
2022/09/20 06:59:42;;;;;;;7.03;4.15;;;16.40;95.10;;;;;;5012555;28;20467;-79
2022/09/20 07:02:08;;;;;;;7.63;3.45;;;16.80;94.70;;;;;;5013003;28;20040;-81
2022/09/20 07:04:34;;;;;;;5.35;3.30;;;17.00;94.40;;;;;;5012881;28;20096;-80
2022/09/20 07:07:01;;;;;;;6.18;3.78;;;17.10;94.20;;;;;;5013089;28;20053;-80
2022/09/20 07:09:27;;;;;;;7.47;3.80;;;17.10;94.00;;;;;;5012734;28;20029;-79
2022/09/20 07:11:54;;;;;;;6.82;3.30;;;17.20;93.80;;;;;;5012542;28;20399;-80
2022/09/20 07:14:20;;;;;;;10.10;4.15;;;17.20;93.80;;;;;;5012712;28;20022;-80
2022/09/20 07:16:46;;;;;;;7.97;4.05;;;17.30;93.80;;;;;;5011475;28;20029;-81
2022/09/20 07:19:12;;;;;;;7.43;4.10;;;17.30;93.70;;;;;;5012730;28;20386;-81
2022/09/20 07:21:38;;;;;;;9.98;3.88;;;17.30;93.60;;;;;;5013150;28;20030;-81
2022/09/20 07:24:03;;;;;;;8.88;4.30;;;17.40;93.60;;;;;;5012748;28;20105;-81
2022/09/20 07:26:29;;;;;;;10.60;4.78;;;17.30;93.60;;;;;;5013769;28;20022;-80
2022/09/20 07:28:56;;;;;;;8.57;3.95;;;17.40;93.60;;;;;;5016421;28;20026;-79
2022/09/20 07:31:23;;;;;;;7.15;4.18;;;17.40;93.50;;;;;;5016686;28;20033;-81
2022/09/20 07:33:49;;;;;;;8.23;3.90;;;17.40;93.50;;;;;;5016219;28;20030;-80
2022/09/20 07:36:15;;;;;;;11.43;4.57;;;17.40;93.40;;;;;;5016353;28;20460;-81
2022/09/20 07:38:42;;;;;;;7.50;3.65;;;17.40;93.50;;;;;;5015157;28;20479;-81
2022/09/20 07:41:09;;;;;;;8.73;4.30;;;17.40;93.50;;;;;;5016609;28;20026;-81
2022/09/20 07:43:34;;;;;;;8.40;4.03;;;17.40;93.50;;;;;;5016064;28;20021;-80
2022/09/20 07:46:00;;;;;;;9.00;4.25;;;17.40;93.50;;;;;;5016107;28;20475;-79
2022/09/20 07:48:31;;;;;;;6.85;3.63;;;17.50;93.50;;;;;;5016154;28;20026;-79
2022/09/20 07:51:01;;;;;;;12.57;4.97;;;17.50;93.60;;;;;;5016382;28;20021;-77
2022/09/20 07:53:26;;;;;;;7.65;5.00;;;17.50;93.50;;;;;;5015879;28;20037;-80
2022/09/20 07:56:00;;;;;;;7.50;4.50;;;17.50;93.40;;;;;;5016255;28;20021;-79
2022/09/20 07:58:31;;;;;;;9.20;4.95;;;17.50;93.50;;;;;;5016035;28;20029;-80
2022/09/20 08:00:59;;;;;;;10.52;5.00;;;17.50;93.50;;;;;;5014943;28;20100;-80
2022/09/20 08:03:26;;;;;;;9.25;4.43;;;17.60;93.50;;;;;;5016207;28;20030;-81
2022/09/20 08:06:00;;;;;;;7.35;4.93;;;17.60;93.40;;;;;;5015624;28;20042;-80
2022/09/20 08:08:27;;;;;;;13.68;4.50;;;17.60;93.40;;;;;;5015817;28;20030;-81
2022/09/20 08:10:54;;;;;;;8.05;3.97;;;17.60;93.50;;;;;;5015956;28;20022;-80
2022/09/20 08:13:20;;;;;;;8.23;3.85;;;17.60;93.40;;;;;;5015600;28;20137;-81
2022/09/20 08:15:46;;;;;;;9.77;4.65;;;17.60;93.40;;;;;;5015631;28;20033;-80
2022/09/20 08:18:13;;;;;;;6.65;3.78;;;17.60;93.50;;;;;;5015648;28;20115;-80
2022/09/20 08:20:39;;;;;;;6.95;3.60;;;17.60;93.60;;;;;;5015308;28;20022;-81
2022/09/20 08:23:05;;;;;;;6.38;3.50;;;17.60;93.80;;;;;;5015454;28;20033;-81
2022/09/20 08:25:32;;;;;;;6.40;3.70;;;17.60;93.90;;;;;;5015498;28;20024;-81
2022/09/20 08:27:58;;;;;;;5.72;3.50;;;17.60;94.20;;;;;;5013892;28;20018;-81
2022/09/20 08:30:23;;;;;;;5.65;3.78;;;17.60;94.30;;;;;;5015531;28;20424;-80
2022/09/20 08:32:49;;;;;;;7.32;3.28;;;17.70;94.40;;;;;;5015344;28;20122;-80
2022/09/20 08:35:16;;;;;;;4.68;3.47;;;17.70;94.30;;;;;;5015205;28;20549;-81
2022/09/20 08:37:42;;;;;;;9.10;4.00;;;17.70;94.50;;;;;;5015123;28;20029;-81
2022/09/20 08:40:12;;;;;;;11.45;3.47;;;17.70;94.50;;;;;;5015447;28;20014;-81
2022/09/20 08:42:38;;;;;;;9.07;3.30;;;17.60;94.50;;;;;;5014985;28;20483;-80
2022/09/20 08:45:25;;;;;;;9.10;3.30;;;17.70;94.50;;;;;;5014913;28;20365;-81
2022/09/20 08:48:01;;;;;;;6.38;2.75;;;17.70;94.60;;;;;;5015070;28;20030;-81
2022/09/20 08:50:27;;;;;;;8.80;3.83;;;17.70;94.60;;;;;;5014885;28;20057;-79
2022/09/20 08:52:55;;;;;;;7.97;3.80;;;17.70;94.50;;;;;;5015003;28;20510;-80
2022/09/20 08:55:31;;;;;;;4.18;2.58;;;17.80;94.50;;;;;;5014644;28;20879;-81
2022/09/20 08:57:58;;;;;;;6.78;2.83;;;17.80;94.40;;;;;;5014844;28;20096;-81
2022/09/20 09:00:32;;;;;;;8.63;3.40;;;17.80;94.30;;;;;;5013558;28;20101;-81
2022/09/20 09:03:04;;;;;;;7.50;3.20;;;17.80;94.30;;;;;;5013513;28;20085;-81
2022/09/20 09:05:45;;;;;;;5.72;2.88;;;17.90;94.10;;;;;;5014889;28;20060;-81
2022/09/20 09:08:17;;;;;;;5.95;2.92;;;17.90;94.10;;;;;;5014883;28;20033;-79
2022/09/20 09:11:08;;;;;;;7.40;3.17;;;17.90;94.10;;;;;;5014358;28;20026;-77
2022/09/20 09:13:53;;;;;;;4.85;2.83;;;18.00;94.10;;;;;;5014644;28;20479;-76
2022/09/20 09:16:22;;;;;;;6.45;3.20;;;17.90;94.30;;;;;;5013314;28;20050;-77
2022/09/20 09:18:48;;;;;;;5.10;2.95;;;17.90;94.20;;;;;;5014527;28;20459;-77
2022/09/20 09:21:28;;;;;;;11.68;3.33;;;18.00;94.10;;;;;;5014330;28;20054;-77
2022/09/20 09:24:15;;;;;;;4.85;2.33;;;18.00;94.10;;;;;;5014423;28;20026;-80
2022/09/20 09:26:45;;;;;;;8.13;3.30;;;17.90;94.10;;;;;;5014173;28;20057;-79
2022/09/20 09:29:19;;;;;;;5.30;2.63;;;18.00;94.20;;;;;;5014332;28;20018;-79
2022/09/20 09:31:50;;;;;;;6.07;4.07;;;18.00;94.10;;;;;;5014188;28;20029;-78
2022/09/20 09:34:27;;;;;;;7.57;2.80;;;18.10;94.10;;;;;;5014205;28;20057;-80
2022/09/20 09:36:54;;;;;;;4.63;2.33;;;18.00;94.20;;;;;;5014292;28;20030;-79
2022/09/20 09:39:36;;;;;;;5.60;2.20;;;18.00;94.10;;;;;;5014044;28;20061;-79
2022/09/20 09:42:24;;;;;;;5.05;1.80;;;18.00;94.00;;;;;;5014055;28;20022;-77
2022/09/20 09:44:50;;;;;;;3.13;1.27;;;18.00;94.10;;;;;;5014064;28;20105;-79
2022/09/20 09:47:26;;;;;;;4.40;1.80;;;18.10;94.00;;;;;;5013889;28;20634;-78
2022/09/20 09:49:56;;;;;;;5.25;1.73;;;18.10;94.00;;;;;;5013215;28;20022;-77
2022/09/20 09:52:31;;;;;;;5.78;2.00;;;18.10;94.00;;;;;;5013791;28;20034;-80
2022/09/20 09:54:58;;;;;;;6.78;1.20;;;18.10;94.00;;;;;;5013604;28;20022;-80
2022/09/20 09:57:42;;;;;;;2.97;0.77;;;18.50;88.60;;;;;;5014084;28;20025;-81
2022/09/20 10:00:16;;;;;;;3.05;0.93;;;18.60;84.10;;;;;;5013878;28;20502;-77
2022/09/20 10:02:50;;;;;;;4.88;1.23;;;18.70;83.90;;;;;;5013496;28;20466;-83
2022/09/20 10:05:27;;;;;;;5.65;1.30;;;18.80;83.70;;;;;;5013776;28;20076;-82
2022/09/20 10:08:13;;;;;;;4.35;1.58;;;18.80;83.80;;;;;;5013208;28;20030;-82
2022/09/20 10:10:51;;;;;;;5.53;1.00;;;18.80;83.80;;;;;;5014078;28;20026;-82
2022/09/20 10:13:44;;;;;;;2.85;0.98;;;18.90;84.30;;;;;;5012174;28;20091;-82
2022/09/20 10:16:38;;;;;;;2.95;1.00;;;18.90;85.10;;;;;;5013606;28;20028;-81
2022/09/20 10:19:11;;;;;;;3.70;0.82;;;18.90;85.00;;;;;;5014001;28;20022;-82
2022/09/20 10:21:55;;;;;;;2.65;0.90;;;18.90;85.30;;;;;;5013930;28;20101;-81
2022/09/20 10:24:33;;;;;;;3.85;0.75;;;18.90;85.30;;;;;;5013245;28;20108;-79
2022/09/20 10:27:37;;;;;;;2.83;0.80;;;18.90;85.20;;;;;;5013264;28;20053;-79
2022/09/20 10:30:18;;;;;;;3.63;0.60;;;18.90;85.70;;;;;;5005232;28;20117;-80
2022/09/20 10:32:52;;;;;;;1.90;0.85;;;18.90;86.00;;;;;;5013318;28;20436;-81
2022/09/20 10:36:06;;;;;;;2.40;0.85;;;18.90;86.30;;;;;;5013250;28;20101;-81
2022/09/20 10:39:02;;;;;;;5.47;1.20;;;18.90;86.10;;;;;;5012261;28;20061;-78
2022/09/20 10:44:45;;;;;;;2.65;0.63;;;19.00;86.30;;;;;;5013406;28;20064;-80
2022/09/20 10:47:20;;;;;;;2.25;0.80;;;19.00;86.70;;;;;;5011546;28;20042;-81
2022/09/20 10:49:56;;;;;;;2.97;0.63;;;19.00;87.40;;;;;;5011801;28;20025;-76
2022/09/20 10:52:55;;;;;;;1.90;0.75;;;19.00;86.80;;;;;;5013297;28;20120;-81
2022/09/20 10:55:33;;;;;;;3.42;0.98;;;19.00;87.50;;;;;;5013193;28;20090;-79
2022/09/20 10:58:36;;;;;;;3.20;0.47;;;19.00;86.90;;;;;;5013040;28;20080;-79
2022/09/20 11:01:30;;;;;;;2.58;0.77;;;19.00;87.20;;;;;;5015008;28;20032;-76
2022/09/20 11:04:29;;;;;;;2.95;0.98;;;19.10;88.20;;;;;;5016897;28;20060;-76
2022/09/20 11:07:17;;;;;;;3.95;0.60;;;19.20;88.80;;;;;;5016918;28;20037;-78
2022/09/20 11:10:06;;;;;;;2.80;0.68;;;19.10;88.50;;;;;;5016781;28;20022;-77
2022/09/20 11:12:49;;;;;;;1.95;0.50;;;19.20;89.20;;;;;;5016413;28;20460;-75
2022/09/20 11:15:18;;;;;;;;;;;19.20;88.60;;;;;;5017285;28;20375;-81
2022/09/20 11:17:58;;;;;;;4.85;0.63;;;19.20;88.60;;;;;;5016926;28;19953;-81
2022/09/20 11:20:32;;;;;;;1.67;0.50;;;19.30;88.40;;;;;;5016729;28;20391;-75
2022/09/20 11:23:02;;;;;;;6.65;0.95;;;19.30;88.50;;;;;;5015188;28;20379;-75
2022/09/20 11:25:49;;;;;;;2.78;0.55;;;19.30;88.70;;;;;;5016800;28;20025;-75
2022/09/20 11:28:25;;;;;;;3.00;0.68;;;19.30;88.60;;;;;;5016485;28;20426;-76
2022/09/20 11:31:12;;;;;;;2.15;0.50;;;19.20;87.80;;;;;;5016694;28;20083;-80
2022/09/20 11:33:51;;;;;;;1.45;0.30;;;19.20;87.40;;;;;;5016636;28;20050;-80
2022/09/20 11:36:37;;;;;;;2.55;0.60;;;19.20;86.70;;;;;;5016186;28;20510;-79
2022/09/20 11:39:05;;;;;;;2.53;0.95;;;19.20;87.30;;;;;;5016321;28;20028;-76
2022/09/20 11:41:31;;;;;;;2.08;0.60;;;19.20;87.80;;;;;;5016520;28;20059;-81
2022/09/20 11:44:05;;;;;;;2.30;0.50;;;19.20;87.60;;;;;;5014849;28;20026;-79
2022/09/20 11:46:49;;;;;;;4.35;0.47;;;19.20;88.20;;;;;;5016271;28;20084;-82
2022/09/20 11:49:30;;;;;;;3.65;0.60;;;19.10;87.30;;;;;;5015930;28;20026;-82
2022/09/20 11:52:12;;;;;;;3.58;0.77;;;19.10;87.90;;;;;;5016230;28;20386;-82
2022/09/20 11:55:09;;;;;;;1.67;0.68;;;19.20;87.80;;;;;;5015936;28;20021;-82
2022/09/20 11:57:36;;;;;;;3.90;0.88;;;19.30;88.30;;;;;;5016072;28;20029;-81
2022/09/20 12:00:04;;;;;;;2.67;0.63;;;19.20;87.80;;;;;;5015971;28;20025;-77
2022/09/20 12:02:47;;;;;;;4.13;0.63;;;19.20;87.70;;;;;;5016074;28;20487;-81
2022/09/20 12:05:36;;;;;;;2.95;0.47;;;19.30;88.60;;;;;;5015850;28;20040;-83
2022/09/20 12:08:07;;;;;;;3.42;0.57;;;19.30;88.60;;;;;;5016270;28;20029;-82
2022/09/20 12:10:38;;;;;;;1.15;0.60;;;19.30;88.90;;;;;;5015931;28;20014;-82
2022/09/20 12:13:23;;;;;;;3.53;0.90;;;19.30;89.50;;;;;;5014978;28;20505;-81
2022/09/20 12:16:00;;;;;;;2.22;0.82;;;19.40;90.00;;;;;;5015553;28;20101;-82
2022/09/20 12:18:30;;;;;;;3.28;1.00;;;19.40;90.20;;;;;;5015425;28;20037;-80
2022/09/20 12:20:55;;;;;;;1.73;0.77;;;19.40;90.10;;;;;;5015588;28;20022;-81
2022/09/20 12:23:39;;;;;;;2.10;0.40;;;19.40;90.10;;;;;;5014326;28;20030;-82
2022/09/20 12:26:09;;;;;;;1.98;0.57;;;19.40;90.20;;;;;;5015499;28;20037;-81
2022/09/20 12:28:38;;;;;;;1.48;0.45;;;19.40;90.20;;;;;;5014044;28;20453;-82
2022/09/20 12:31:36;;;;;;;1.42;0.55;;;19.40;90.30;;;;;;5015485;28;20100;-81
2022/09/20 12:34:11;;;;;;;3.72;0.70;;;19.40;90.20;;;;;;5015083;28;20503;-82
2022/09/20 12:36:42;;;;;;;1.77;0.50;;;19.50;90.30;;;;;;5015335;28;20391;-81
2022/09/20 12:39:09;;;;;;;3.28;0.70;;;19.50;90.30;;;;;;5015496;28;20026;-81
2022/09/20 12:41:46;;;;;;;3.88;1.05;;;19.50;90.20;;;;;;5015434;28;20018;-82
2022/09/20 12:44:31;;;;;;;2.83;0.95;;;19.50;90.40;;;;;;5015304;28;20041;-80
2022/09/20 12:46:59;;;;;;;2.53;0.45;;;19.50;90.20;;;;;;5014940;28;20045;-81
2022/09/20 12:55:24;;;;;;;1.48;0.47;;;19.50;90.20;;;;;;5014916;28;20487;-81
2022/09/20 12:58:13;;;;;;;3.83;0.82;;;19.60;90.20;;;;;;5015488;28;20021;-82
2022/09/20 13:00:45;;;;;;;2.33;0.70;;;19.60;90.20;;;;;;5014886;28;20034;-81
2022/09/20 13:03:37;;;;;;;2.03;0.50;;;19.60;90.40;;;;;;5014917;28;20119;-81
2022/09/20 13:06:06;;;;;;;3.17;0.60;;;19.60;90.20;;;;;;5014934;28;20066;-80
2022/09/20 13:08:39;;;;;;;5.38;0.80;;;19.60;90.10;;;;;;5014817;28;20059;-81
2022/09/20 13:11:18;;;;;;;2.33;0.50;;;19.60;90.40;;;;;;5014788;28;20028;-77
2022/09/20 13:14:03;;;;;;;2.80;0.82;;;19.60;90.40;;;;;;5014776;28;20406;-81
2022/09/20 13:16:35;;;;;;;2.22;0.55;;;19.70;90.60;;;;;;5014253;28;20028;-81
2022/09/20 13:19:21;;;;;;;1.98;0.60;;;19.70;90.50;;;;;;5014703;28;20080;-80
2022/09/20 13:21:53;;;;;;;1.33;0.47;;;19.70;90.60;;;;;;5012999;28;20379;-79
2022/09/20 13:24:19;;;;;;;1.58;0.50;;;19.70;90.40;;;;;;5013438;28;20091;-75
2022/09/20 13:26:47;;;;;;;1.80;0.60;;;19.70;90.50;;;;;;5014280;28;20018;-76
2022/09/20 13:29:32;;;;;;;1.40;0.40;;;19.80;90.40;;;;;;5014528;28;20026;-78
2022/09/20 13:32:27;;;;;;;2.55;0.30;;;19.80;90.40;;;;;;5013493;28;20030;-80
2022/09/20 13:35:08;;;;;;;1.25;0.47;;;19.80;90.40;;;;;;5014283;28;20498;-82
2022/09/20 13:37:36;;;;;;;1.17;0.40;;;19.80;90.30;;;;;;5014062;28;20471;-81
2022/09/20 13:40:04;;;;;;;2.10;0.40;;;19.80;90.40;;;;;;5014267;28;20054;-75
2022/09/20 13:42:34;;;;;;;1.95;0.40;;;19.80;90.50;;;;;;5014298;28;20026;-76
2022/09/20 13:45:02;;;;;;;1.60;0.45;;;19.80;90.30;;;;;;5014251;28;20379;-75
2022/09/20 13:47:30;;;;;;;1.85;0.50;;;19.80;90.40;;;;;;5014153;28;20026;-76
2022/09/20 13:50:19;;;;;;;2.70;0.47;;;19.90;90.30;;;;;;5014207;28;20028;-81
2022/09/20 13:52:47;;;;;;;1.27;0.43;;;19.80;90.30;;;;;;5013873;28;20026;-81
2022/09/20 13:55:29;;;;;;;1.13;0.40;;;19.90;90.30;;;;;;5013782;28;20022;-77
2022/09/20 13:57:57;;;;;;;3.78;0.93;;;19.90;90.20;;;;;;5013913;28;20022;-82